sensor_id;sensor_type;location;lat;lon;timestamp;temperature;humidity
11264;DHT22;5689;48.798;9.070;2023-02-01T00:01:25;3.60;99.90
11264;DHT22;5689;48.798;9.070;2023-02-01T00:03:53;3.60;99.90
11264;DHT22;5689;48.798;9.070;2023-02-01T00:06:21;3.70;99.90
11264;DHT22;5689;48.798;9.070;2023-02-01T00:08:52;3.60;99.90
11264;DHT22;5689;48.798;9.070;2023-02-01T00:11:21;3.60;99.90
11264;DHT22;5689;48.798;9.070;2023-02-01T00:13:49;3.70;99.90
11264;DHT22;5689;48.798;9.070;2023-02-01T00:16:21;3.70;99.90
11264;DHT22;5689;48.798;9.070;2023-02-01T00:18:51;3.70;99.90
11264;DHT22;5689;48.798;9.070;2023-02-01T00:21:20;3.70;99.90
11264;DHT22;5689;48.798;9.070;2023-02-01T00:23:48;3.70;99.90
11264;DHT22;5689;48.798;9.070;2023-02-01T00:26:18;3.70;99.90
11264;DHT22;5689;48.798;9.070;2023-02-01T00:28:47;3.80;99.90
11264;DHT22;5689;48.798;9.070;2023-02-01T00:31:15;3.70;99.90
11264;DHT22;5689;48.798;9.070;2023-02-01T00:33:46;3.70;99.90
11264;DHT22;5689;48.798;9.070;2023-02-01T00:36:15;3.70;99.90
11264;DHT22;5689;48.798;9.070;2023-02-01T00:38:43;3.70;99.90
11264;DHT22;5689;48.798;9.070;2023-02-01T00:41:13;3.80;99.90
11264;DHT22;5689;48.798;9.070;2023-02-01T00:43:42;3.80;99.90
11264;DHT22;5689;48.798;9.070;2023-02-01T00:46:10;3.80;99.90
11264;DHT22;5689;48.798;9.070;2023-02-01T00:48:39;3.80;99.90
11264;DHT22;5689;48.798;9.070;2023-02-01T00:51:12;3.90;99.90
11264;DHT22;5689;48.798;9.070;2023-02-01T00:53:40;3.90;99.90
11264;DHT22;5689;48.798;9.070;2023-02-01T00:56:09;3.90;99.90
11264;DHT22;5689;48.798;9.070;2023-02-01T00:58:37;3.90;99.90
11264;DHT22;5689;48.798;9.070;2023-02-01T01:01:08;3.90;99.90
11264;DHT22;5689;48.798;9.070;2023-02-01T01:03:38;4.00;99.90
11264;DHT22;5689;48.798;9.070;2023-02-01T01:06:09;4.00;99.90
11264;DHT22;5689;48.798;9.070;2023-02-01T01:08:38;4.00;99.90
11264;DHT22;5689;48.798;9.070;2023-02-01T01:11:08;4.00;99.90
11264;DHT22;5689;48.798;9.070;2023-02-01T01:13:36;3.90;99.90
11264;DHT22;5689;48.798;9.070;2023-02-01T01:16:06;3.90;99.90
11264;DHT22;5689;48.798;9.070;2023-02-01T01:18:34;3.90;99.90
11264;DHT22;5689;48.798;9.070;2023-02-01T01:21:04;3.90;99.90
11264;DHT22;5689;48.798;9.070;2023-02-01T01:23:34;3.90;99.90
11264;DHT22;5689;48.798;9.070;2023-02-01T01:26:05;3.90;99.90
11264;DHT22;5689;48.798;9.070;2023-02-01T01:28:33;4.00;99.90
11264;DHT22;5689;48.798;9.070;2023-02-01T01:31:02;3.90;99.90
11264;DHT22;5689;48.798;9.070;2023-02-01T01:33:30;4.10;99.90
11264;DHT22;5689;48.798;9.070;2023-02-01T01:35:58;3.90;99.90
11264;DHT22;5689;48.798;9.070;2023-02-01T01:38:26;3.90;99.90
11264;DHT22;5689;48.798;9.070;2023-02-01T01:40:55;4.00;99.90
11264;DHT22;5689;48.798;9.070;2023-02-01T01:43:23;3.90;99.90
11264;DHT22;5689;48.798;9.070;2023-02-01T01:45:54;3.90;99.90
11264;DHT22;5689;48.798;9.070;2023-02-01T01:48:26;3.90;99.90
11264;DHT22;5689;48.798;9.070;2023-02-01T01:50:59;3.90;99.90
11264;DHT22;5689;48.798;9.070;2023-02-01T01:53:31;3.90;99.90
11264;DHT22;5689;48.798;9.070;2023-02-01T01:56:02;3.90;99.90
11264;DHT22;5689;48.798;9.070;2023-02-01T01:58:32;4.00;99.90
11264;DHT22;5689;48.798;9.070;2023-02-01T02:01:01;4.00;99.90
11264;DHT22;5689;48.798;9.070;2023-02-01T02:03:32;4.00;99.90
11264;DHT22;5689;48.798;9.070;2023-02-01T02:06:02;3.90;99.90
11264;DHT22;5689;48.798;9.070;2023-02-01T02:08:32;4.00;99.90
11264;DHT22;5689;48.798;9.070;2023-02-01T02:11:02;4.00;99.90
11264;DHT22;5689;48.798;9.070;2023-02-01T02:13:32;4.10;99.90
11264;DHT22;5689;48.798;9.070;2023-02-01T02:16:17;4.00;99.90
11264;DHT22;5689;48.798;9.070;2023-02-01T02:18:56;4.00;99.90
11264;DHT22;5689;48.798;9.070;2023-02-01T02:21:42;4.00;99.90
11264;DHT22;5689;48.798;9.070;2023-02-01T02:24:34;4.00;99.90
11264;DHT22;5689;48.798;9.070;2023-02-01T02:27:17;4.00;99.90
11264;DHT22;5689;48.798;9.070;2023-02-01T02:30:33;4.00;99.90
11264;DHT22;5689;48.798;9.070;2023-02-01T02:36:09;4.00;99.90
11264;DHT22;5689;48.798;9.070;2023-02-01T02:38:44;4.00;99.90
11264;DHT22;5689;48.798;9.070;2023-02-01T02:41:16;4.00;99.90
11264;DHT22;5689;48.798;9.070;2023-02-01T02:44:08;4.00;99.90
11264;DHT22;5689;48.798;9.070;2023-02-01T02:46:59;4.00;99.90
11264;DHT22;5689;48.798;9.070;2023-02-01T02:49:51;4.00;99.90
11264;DHT22;5689;48.798;9.070;2023-02-01T02:52:37;4.00;99.90
11264;DHT22;5689;48.798;9.070;2023-02-01T02:55:26;4.00;99.90
11264;DHT22;5689;48.798;9.070;2023-02-01T02:57:56;4.00;99.90
11264;DHT22;5689;48.798;9.070;2023-02-01T03:00:44;4.00;99.90
11264;DHT22;5689;48.798;9.070;2023-02-01T03:03:31;4.00;99.90
11264;DHT22;5689;48.798;9.070;2023-02-01T03:06:18;4.10;99.90
11264;DHT22;5689;48.798;9.070;2023-02-01T03:08:48;4.00;99.90
11264;DHT22;5689;48.798;9.070;2023-02-01T03:11:21;4.10;99.90
11264;DHT22;5689;48.798;9.070;2023-02-01T03:13:51;4.10;99.90
11264;DHT22;5689;48.798;9.070;2023-02-01T03:16:22;4.10;99.90
11264;DHT22;5689;48.798;9.070;2023-02-01T03:18:56;4.10;99.90
11264;DHT22;5689;48.798;9.070;2023-02-01T03:21:32;4.10;99.90
11264;DHT22;5689;48.798;9.070;2023-02-01T03:24:04;4.20;99.90
11264;DHT22;5689;48.798;9.070;2023-02-01T03:26:37;4.20;99.90
11264;DHT22;5689;48.798;9.070;2023-02-01T03:29:12;4.00;99.90
11264;DHT22;5689;48.798;9.070;2023-02-01T03:31:42;4.00;99.90
11264;DHT22;5689;48.798;9.070;2023-02-01T03:34:11;4.00;99.90
11264;DHT22;5689;48.798;9.070;2023-02-01T03:36:48;4.00;99.90
11264;DHT22;5689;48.798;9.070;2023-02-01T03:39:20;4.00;99.90
11264;DHT22;5689;48.798;9.070;2023-02-01T03:41:52;3.90;99.90
11264;DHT22;5689;48.798;9.070;2023-02-01T03:44:23;3.90;99.90
11264;DHT22;5689;48.798;9.070;2023-02-01T03:46:55;3.90;99.90
11264;DHT22;5689;48.798;9.070;2023-02-01T03:49:27;4.00;99.90
11264;DHT22;5689;48.798;9.070;2023-02-01T03:51:58;4.10;99.90
11264;DHT22;5689;48.798;9.070;2023-02-01T03:54:28;4.20;99.90
11264;DHT22;5689;48.798;9.070;2023-02-01T03:59:39;4.10;99.90
11264;DHT22;5689;48.798;9.070;2023-02-01T04:02:07;4.00;99.90
11264;DHT22;5689;48.798;9.070;2023-02-01T04:04:36;4.00;99.90
11264;DHT22;5689;48.798;9.070;2023-02-01T04:07:06;4.00;99.90
11264;DHT22;5689;48.798;9.070;2023-02-01T04:09:34;4.00;99.90
11264;DHT22;5689;48.798;9.070;2023-02-01T04:12:01;4.00;99.90
11264;DHT22;5689;48.798;9.070;2023-02-01T04:14:29;4.00;99.90
11264;DHT22;5689;48.798;9.070;2023-02-01T04:16:57;4.10;99.90
11264;DHT22;5689;48.798;9.070;2023-02-01T04:19:25;4.10;99.90
11264;DHT22;5689;48.798;9.070;2023-02-01T04:21:53;4.10;99.90
11264;DHT22;5689;48.798;9.070;2023-02-01T04:24:23;4.10;99.90
11264;DHT22;5689;48.798;9.070;2023-02-01T04:26:51;4.10;99.90
11264;DHT22;5689;48.798;9.070;2023-02-01T04:29:18;4.10;99.90
11264;DHT22;5689;48.798;9.070;2023-02-01T04:31:46;4.20;99.90
11264;DHT22;5689;48.798;9.070;2023-02-01T04:34:16;4.20;99.90
11264;DHT22;5689;48.798;9.070;2023-02-01T04:36:44;4.10;99.90
11264;DHT22;5689;48.798;9.070;2023-02-01T04:39:13;4.20;99.90
11264;DHT22;5689;48.798;9.070;2023-02-01T04:41:42;4.30;99.90
11264;DHT22;5689;48.798;9.070;2023-02-01T04:44:13;4.30;99.90
11264;DHT22;5689;48.798;9.070;2023-02-01T04:46:41;4.40;99.90
11264;DHT22;5689;48.798;9.070;2023-02-01T04:49:10;4.40;99.90
11264;DHT22;5689;48.798;9.070;2023-02-01T04:51:38;4.40;99.90
11264;DHT22;5689;48.798;9.070;2023-02-01T04:54:07;4.40;99.90
11264;DHT22;5689;48.798;9.070;2023-02-01T04:56:35;4.40;99.90
11264;DHT22;5689;48.798;9.070;2023-02-01T04:59:04;4.30;99.90
11264;DHT22;5689;48.798;9.070;2023-02-01T05:01:33;4.30;99.90
11264;DHT22;5689;48.798;9.070;2023-02-01T05:04:01;4.30;99.90
11264;DHT22;5689;48.798;9.070;2023-02-01T05:06:29;4.30;99.90
11264;DHT22;5689;48.798;9.070;2023-02-01T05:08:57;4.30;99.90
11264;DHT22;5689;48.798;9.070;2023-02-01T05:11:25;4.40;99.90
11264;DHT22;5689;48.798;9.070;2023-02-01T05:14:12;4.50;99.90
11264;DHT22;5689;48.798;9.070;2023-02-01T05:16:40;4.60;99.90
11264;DHT22;5689;48.798;9.070;2023-02-01T05:19:08;4.70;99.90
11264;DHT22;5689;48.798;9.070;2023-02-01T05:21:36;4.80;99.90
11264;DHT22;5689;48.798;9.070;2023-02-01T05:24:04;4.70;99.90
11264;DHT22;5689;48.798;9.070;2023-02-01T05:26:40;4.70;99.90
11264;DHT22;5689;48.798;9.070;2023-02-01T05:29:09;4.70;99.90
11264;DHT22;5689;48.798;9.070;2023-02-01T05:31:38;4.60;99.90
11264;DHT22;5689;48.798;9.070;2023-02-01T05:34:07;4.60;99.90
11264;DHT22;5689;48.798;9.070;2023-02-01T05:36:35;4.60;99.90
11264;DHT22;5689;48.798;9.070;2023-02-01T05:39:03;4.60;99.90
11264;DHT22;5689;48.798;9.070;2023-02-01T05:41:31;4.60;99.90
11264;DHT22;5689;48.798;9.070;2023-02-01T05:43:59;4.70;99.90
11264;DHT22;5689;48.798;9.070;2023-02-01T05:46:27;4.70;99.90
11264;DHT22;5689;48.798;9.070;2023-02-01T05:48:57;4.70;99.90
11264;DHT22;5689;48.798;9.070;2023-02-01T05:51:25;4.60;99.90
11264;DHT22;5689;48.798;9.070;2023-02-01T05:53:52;4.50;99.90
11264;DHT22;5689;48.798;9.070;2023-02-01T05:56:20;4.40;99.90
11264;DHT22;5689;48.798;9.070;2023-02-01T05:58:48;4.40;99.90
11264;DHT22;5689;48.798;9.070;2023-02-01T06:01:16;4.30;99.90
11264;DHT22;5689;48.798;9.070;2023-02-01T06:03:44;4.30;99.90
11264;DHT22;5689;48.798;9.070;2023-02-01T06:06:13;4.20;99.90
11264;DHT22;5689;48.798;9.070;2023-02-01T06:08:41;4.20;99.90
11264;DHT22;5689;48.798;9.070;2023-02-01T06:11:09;4.30;99.90
11264;DHT22;5689;48.798;9.070;2023-02-01T06:13:41;4.30;99.90
11264;DHT22;5689;48.798;9.070;2023-02-01T06:16:09;4.30;99.90
11264;DHT22;5689;48.798;9.070;2023-02-01T06:18:37;4.30;99.90
11264;DHT22;5689;48.798;9.070;2023-02-01T06:21:05;4.30;99.90
11264;DHT22;5689;48.798;9.070;2023-02-01T06:23:34;4.40;99.90
11264;DHT22;5689;48.798;9.070;2023-02-01T06:26:04;4.40;99.90
11264;DHT22;5689;48.798;9.070;2023-02-01T06:28:32;4.40;99.90
11264;DHT22;5689;48.798;9.070;2023-02-01T06:31:03;4.50;99.90
11264;DHT22;5689;48.798;9.070;2023-02-01T06:33:33;4.50;99.90
11264;DHT22;5689;48.798;9.070;2023-02-01T06:36:02;4.60;99.90
11264;DHT22;5689;48.798;9.070;2023-02-01T06:38:31;4.60;99.90
11264;DHT22;5689;48.798;9.070;2023-02-01T06:41:03;4.70;99.90
11264;DHT22;5689;48.798;9.070;2023-02-01T06:43:31;4.80;99.90
11264;DHT22;5689;48.798;9.070;2023-02-01T06:46:01;4.80;99.90
11264;DHT22;5689;48.798;9.070;2023-02-01T06:48:29;4.90;99.90
11264;DHT22;5689;48.798;9.070;2023-02-01T06:50:57;4.90;99.90
11264;DHT22;5689;48.798;9.070;2023-02-01T06:53:26;5.00;99.90
11264;DHT22;5689;48.798;9.070;2023-02-01T06:55:55;5.00;99.90
11264;DHT22;5689;48.798;9.070;2023-02-01T06:58:28;5.00;99.90
11264;DHT22;5689;48.798;9.070;2023-02-01T07:00:56;4.90;99.90
11264;DHT22;5689;48.798;9.070;2023-02-01T07:03:24;5.00;99.90
11264;DHT22;5689;48.798;9.070;2023-02-01T07:05:55;5.10;99.90
11264;DHT22;5689;48.798;9.070;2023-02-01T07:08:25;5.10;99.90
11264;DHT22;5689;48.798;9.070;2023-02-01T07:10:54;5.20;99.90
11264;DHT22;5689;48.798;9.070;2023-02-01T07:13:22;5.20;99.90
11264;DHT22;5689;48.798;9.070;2023-02-01T07:15:51;5.20;99.90
11264;DHT22;5689;48.798;9.070;2023-02-01T07:18:19;5.30;99.90
11264;DHT22;5689;48.798;9.070;2023-02-01T07:20:49;5.30;99.90
11264;DHT22;5689;48.798;9.070;2023-02-01T07:23:17;5.30;99.90
11264;DHT22;5689;48.798;9.070;2023-02-01T07:25:45;5.20;99.90
11264;DHT22;5689;48.798;9.070;2023-02-01T07:28:13;5.30;99.90
11264;DHT22;5689;48.798;9.070;2023-02-01T07:30:41;5.30;99.90
11264;DHT22;5689;48.798;9.070;2023-02-01T07:33:11;5.40;99.90
11264;DHT22;5689;48.798;9.070;2023-02-01T07:35:39;5.40;99.90
11264;DHT22;5689;48.798;9.070;2023-02-01T07:38:06;5.40;99.90
11264;DHT22;5689;48.798;9.070;2023-02-01T07:40:34;5.40;99.90
11264;DHT22;5689;48.798;9.070;2023-02-01T07:43:02;5.40;99.90
11264;DHT22;5689;48.798;9.070;2023-02-01T07:45:32;5.50;99.90
11264;DHT22;5689;48.798;9.070;2023-02-01T07:48:03;5.50;99.90
11264;DHT22;5689;48.798;9.070;2023-02-01T07:50:32;5.50;99.90
11264;DHT22;5689;48.798;9.070;2023-02-01T07:53:00;5.50;99.90
11264;DHT22;5689;48.798;9.070;2023-02-01T07:55:28;5.50;99.90
11264;DHT22;5689;48.798;9.070;2023-02-01T07:57:57;5.40;99.90
11264;DHT22;5689;48.798;9.070;2023-02-01T08:00:26;5.50;99.90
11264;DHT22;5689;48.798;9.070;2023-02-01T08:03:11;5.60;99.90
11264;DHT22;5689;48.798;9.070;2023-02-01T08:05:41;5.60;99.90
11264;DHT22;5689;48.798;9.070;2023-02-01T08:08:09;5.70;99.90
11264;DHT22;5689;48.798;9.070;2023-02-01T08:10:37;5.60;99.90
11264;DHT22;5689;48.798;9.070;2023-02-01T08:13:05;5.60;99.90
11264;DHT22;5689;48.798;9.070;2023-02-01T08:15:33;5.50;99.90
11264;DHT22;5689;48.798;9.070;2023-02-01T08:18:01;5.50;99.90
11264;DHT22;5689;48.798;9.070;2023-02-01T08:20:29;5.60;99.90
11264;DHT22;5689;48.798;9.070;2023-02-01T08:22:59;5.60;99.90
11264;DHT22;5689;48.798;9.070;2023-02-01T08:25:26;5.70;99.90
11264;DHT22;5689;48.798;9.070;2023-02-01T08:27:54;5.70;99.90
11264;DHT22;5689;48.798;9.070;2023-02-01T08:30:23;5.80;99.90
11264;DHT22;5689;48.798;9.070;2023-02-01T08:32:51;5.90;99.90
11264;DHT22;5689;48.798;9.070;2023-02-01T08:35:19;6.00;99.90
11264;DHT22;5689;48.798;9.070;2023-02-01T08:37:51;6.20;99.90
11264;DHT22;5689;48.798;9.070;2023-02-01T08:40:20;6.30;99.90
11264;DHT22;5689;48.798;9.070;2023-02-01T08:42:48;6.10;99.90
11264;DHT22;5689;48.798;9.070;2023-02-01T08:45:21;6.10;99.90
11264;DHT22;5689;48.798;9.070;2023-02-01T08:47:50;6.20;99.90
11264;DHT22;5689;48.798;9.070;2023-02-01T08:50:19;6.20;99.90
11264;DHT22;5689;48.798;9.070;2023-02-01T08:52:48;6.10;99.90
11264;DHT22;5689;48.798;9.070;2023-02-01T08:55:16;6.10;99.90
11264;DHT22;5689;48.798;9.070;2023-02-01T08:57:45;6.30;99.90
11264;DHT22;5689;48.798;9.070;2023-02-01T09:00:15;6.20;99.90
11264;DHT22;5689;48.798;9.070;2023-02-01T09:02:43;6.20;99.90
11264;DHT22;5689;48.798;9.070;2023-02-01T09:05:12;6.10;99.90
11264;DHT22;5689;48.798;9.070;2023-02-01T09:07:43;6.00;99.90
11264;DHT22;5689;48.798;9.070;2023-02-01T09:10:11;5.90;99.90
11264;DHT22;5689;48.798;9.070;2023-02-01T09:12:40;5.90;99.90
11264;DHT22;5689;48.798;9.070;2023-02-01T09:15:10;5.90;99.90
11264;DHT22;5689;48.798;9.070;2023-02-01T09:17:38;5.80;99.90
11264;DHT22;5689;48.798;9.070;2023-02-01T09:20:10;5.80;99.90
11264;DHT22;5689;48.798;9.070;2023-02-01T09:22:38;5.90;99.90
11264;DHT22;5689;48.798;9.070;2023-02-01T09:25:07;5.80;99.90
11264;DHT22;5689;48.798;9.070;2023-02-01T09:27:35;5.90;99.90
11264;DHT22;5689;48.798;9.070;2023-02-01T09:30:04;6.00;99.90
11264;DHT22;5689;48.798;9.070;2023-02-01T09:32:33;6.20;99.90
11264;DHT22;5689;48.798;9.070;2023-02-01T09:35:02;6.30;99.90
11264;DHT22;5689;48.798;9.070;2023-02-01T09:37:30;6.30;99.90
11264;DHT22;5689;48.798;9.070;2023-02-01T09:39:58;6.20;99.90
11264;DHT22;5689;48.798;9.070;2023-02-01T09:42:43;6.20;99.90
11264;DHT22;5689;48.798;9.070;2023-02-01T09:45:22;6.30;99.90
11264;DHT22;5689;48.798;9.070;2023-02-01T09:47:55;6.40;99.90
11264;DHT22;5689;48.798;9.070;2023-02-01T09:50:33;6.50;99.90
11264;DHT22;5689;48.798;9.070;2023-02-01T09:53:05;6.50;99.90
11264;DHT22;5689;48.798;9.070;2023-02-01T09:55:38;6.60;99.90
11264;DHT22;5689;48.798;9.070;2023-02-01T09:58:11;6.70;99.90
11264;DHT22;5689;48.798;9.070;2023-02-01T10:00:46;6.60;99.90
11264;DHT22;5689;48.798;9.070;2023-02-01T10:03:17;6.70;99.90
11264;DHT22;5689;48.798;9.070;2023-02-01T10:06:02;6.60;99.90
11264;DHT22;5689;48.798;9.070;2023-02-01T10:08:39;6.50;99.90
11264;DHT22;5689;48.798;9.070;2023-02-01T10:11:19;6.40;99.90
11264;DHT22;5689;48.798;9.070;2023-02-01T10:13:54;6.30;99.90
11264;DHT22;5689;48.798;9.070;2023-02-01T10:16:36;6.30;99.90
11264;DHT22;5689;48.798;9.070;2023-02-01T10:19:24;6.40;99.90
11264;DHT22;5689;48.798;9.070;2023-02-01T10:22:00;6.60;99.90
11264;DHT22;5689;48.798;9.070;2023-02-01T10:24:37;6.60;99.90
11264;DHT22;5689;48.798;9.070;2023-02-01T10:27:17;6.60;99.90
11264;DHT22;5689;48.798;9.070;2023-02-01T10:29:53;6.50;99.90
11264;DHT22;5689;48.798;9.070;2023-02-01T10:32:24;6.60;99.90
11264;DHT22;5689;48.798;9.070;2023-02-01T10:34:58;6.70;99.90
11264;DHT22;5689;48.798;9.070;2023-02-01T10:37:28;6.70;99.90
11264;DHT22;5689;48.798;9.070;2023-02-01T10:40:00;6.70;99.90
11264;DHT22;5689;48.798;9.070;2023-02-01T10:42:29;6.80;99.90
11264;DHT22;5689;48.798;9.070;2023-02-01T10:45:00;6.90;99.90
11264;DHT22;5689;48.798;9.070;2023-02-01T10:47:29;7.00;99.90
11264;DHT22;5689;48.798;9.070;2023-02-01T10:50:08;7.10;99.90
11264;DHT22;5689;48.798;9.070;2023-02-01T10:52:45;6.90;99.90
11264;DHT22;5689;48.798;9.070;2023-02-01T10:55:35;6.60;99.90
11264;DHT22;5689;48.798;9.070;2023-02-01T10:58:12;6.40;99.90
11264;DHT22;5689;48.798;9.070;2023-02-01T11:00:45;6.50;99.90
11264;DHT22;5689;48.798;9.070;2023-02-01T11:03:34;6.50;99.90
11264;DHT22;5689;48.798;9.070;2023-02-01T11:06:11;6.40;99.90
11264;DHT22;5689;48.798;9.070;2023-02-01T11:08:49;6.40;99.90
11264;DHT22;5689;48.798;9.070;2023-02-01T11:11:20;6.40;99.90
11264;DHT22;5689;48.798;9.070;2023-02-01T11:13:53;6.50;99.90
11264;DHT22;5689;48.798;9.070;2023-02-01T11:16:29;6.50;99.90
11264;DHT22;5689;48.798;9.070;2023-02-01T11:18:58;6.50;99.90
11264;DHT22;5689;48.798;9.070;2023-02-01T11:21:28;6.30;99.90
11264;DHT22;5689;48.798;9.070;2023-02-01T11:24:01;6.40;99.90
11264;DHT22;5689;48.798;9.070;2023-02-01T11:26:29;6.40;99.90
11264;DHT22;5689;48.798;9.070;2023-02-01T11:29:01;6.50;99.90
11264;DHT22;5689;48.798;9.070;2023-02-01T11:31:32;6.60;99.90
11264;DHT22;5689;48.798;9.070;2023-02-01T11:34:06;6.50;99.90
11264;DHT22;5689;48.798;9.070;2023-02-01T11:36:36;6.50;99.90
11264;DHT22;5689;48.798;9.070;2023-02-01T11:39:10;6.60;99.90
11264;DHT22;5689;48.798;9.070;2023-02-01T11:41:43;6.50;99.90
11264;DHT22;5689;48.798;9.070;2023-02-01T11:44:20;6.50;99.90
11264;DHT22;5689;48.798;9.070;2023-02-01T11:46:49;6.50;99.90
11264;DHT22;5689;48.798;9.070;2023-02-01T11:49:21;6.60;99.90
11264;DHT22;5689;48.798;9.070;2023-02-01T11:52:05;6.90;99.90
11264;DHT22;5689;48.798;9.070;2023-02-01T11:54:53;7.30;99.90
11264;DHT22;5689;48.798;9.070;2023-02-01T11:57:39;7.50;99.90
11264;DHT22;5689;48.798;9.070;2023-02-01T12:00:28;7.20;99.90
11264;DHT22;5689;48.798;9.070;2023-02-01T12:06:14;6.70;99.90
11264;DHT22;5689;48.798;9.070;2023-02-01T12:09:04;6.50;99.90
11264;DHT22;5689;48.798;9.070;2023-02-01T12:11:43;6.60;99.90
11264;DHT22;5689;48.798;9.070;2023-02-01T12:14:33;6.60;99.90
11264;DHT22;5689;48.798;9.070;2023-02-01T12:17:27;6.70;99.90
11264;DHT22;5689;48.798;9.070;2023-02-01T12:20:14;6.70;99.90
11264;DHT22;5689;48.798;9.070;2023-02-01T12:22:55;6.70;99.90
11264;DHT22;5689;48.798;9.070;2023-02-01T12:25:42;6.70;99.90
11264;DHT22;5689;48.798;9.070;2023-02-01T12:28:40;6.70;99.90
11264;DHT22;5689;48.798;9.070;2023-02-01T12:31:24;6.50;99.90
11264;DHT22;5689;48.798;9.070;2023-02-01T12:34:06;6.40;99.90
11264;DHT22;5689;48.798;9.070;2023-02-01T12:36:41;6.30;99.90
11264;DHT22;5689;48.798;9.070;2023-02-01T12:39:21;6.40;99.90
11264;DHT22;5689;48.798;9.070;2023-02-01T12:41:57;6.40;99.90
11264;DHT22;5689;48.798;9.070;2023-02-01T12:44:35;6.40;99.90
11264;DHT22;5689;48.798;9.070;2023-02-01T12:47:08;6.50;99.90
11264;DHT22;5689;48.798;9.070;2023-02-01T12:49:46;6.40;99.90
11264;DHT22;5689;48.798;9.070;2023-02-01T12:52:20;6.30;99.90
11264;DHT22;5689;48.798;9.070;2023-02-01T12:54:55;6.30;99.90
11264;DHT22;5689;48.798;9.070;2023-02-01T12:57:28;6.10;99.90
11264;DHT22;5689;48.798;9.070;2023-02-01T13:00:05;6.20;99.90
11264;DHT22;5689;48.798;9.070;2023-02-01T13:02:40;6.10;99.90
11264;DHT22;5689;48.798;9.070;2023-02-01T13:05:16;6.00;99.90
11264;DHT22;5689;48.798;9.070;2023-02-01T13:07:49;5.90;99.90
11264;DHT22;5689;48.798;9.070;2023-02-01T13:10:22;6.00;99.90
11264;DHT22;5689;48.798;9.070;2023-02-01T13:12:56;6.10;99.90
11264;DHT22;5689;48.798;9.070;2023-02-01T13:15:30;6.20;99.90
11264;DHT22;5689;48.798;9.070;2023-02-01T13:18:03;6.30;99.90
11264;DHT22;5689;48.798;9.070;2023-02-01T13:20:35;6.20;99.90
11264;DHT22;5689;48.798;9.070;2023-02-01T13:23:08;6.10;99.90
11264;DHT22;5689;48.798;9.070;2023-02-01T13:25:46;6.20;99.90
11264;DHT22;5689;48.798;9.070;2023-02-01T13:28:22;6.10;99.90
11264;DHT22;5689;48.798;9.070;2023-02-01T13:31:17;6.20;99.90
11264;DHT22;5689;48.798;9.070;2023-02-01T13:37:04;6.30;99.90
11264;DHT22;5689;48.798;9.070;2023-02-01T13:39:58;6.30;99.90
11264;DHT22;5689;48.798;9.070;2023-02-01T13:42:29;6.10;99.90
11264;DHT22;5689;48.798;9.070;2023-02-01T13:45:01;6.10;99.90
11264;DHT22;5689;48.798;9.070;2023-02-01T13:47:33;6.00;99.90
11264;DHT22;5689;48.798;9.070;2023-02-01T13:50:09;5.90;99.90
11264;DHT22;5689;48.798;9.070;2023-02-01T13:52:42;6.00;99.90
11264;DHT22;5689;48.798;9.070;2023-02-01T13:55:23;6.00;99.90
11264;DHT22;5689;48.798;9.070;2023-02-01T13:58:00;5.80;99.90
11264;DHT22;5689;48.798;9.070;2023-02-01T14:00:31;5.80;99.90
11264;DHT22;5689;48.798;9.070;2023-02-01T14:03:10;6.10;99.90
11264;DHT22;5689;48.798;9.070;2023-02-01T14:06:03;6.00;99.90
11264;DHT22;5689;48.798;9.070;2023-02-01T14:08:46;6.10;99.90
11264;DHT22;5689;48.798;9.070;2023-02-01T14:11:37;6.20;99.90
11264;DHT22;5689;48.798;9.070;2023-02-01T14:17:33;6.30;99.90
11264;DHT22;5689;48.798;9.070;2023-02-01T14:23:26;6.30;99.90
11264;DHT22;5689;48.798;9.070;2023-02-01T14:26:07;6.40;99.90
11264;DHT22;5689;48.798;9.070;2023-02-01T14:28:40;6.10;99.90
11264;DHT22;5689;48.798;9.070;2023-02-01T14:31:19;6.10;99.90
11264;DHT22;5689;48.798;9.070;2023-02-01T14:33:58;6.10;99.90
11264;DHT22;5689;48.798;9.070;2023-02-01T14:36:39;6.00;99.90
11264;DHT22;5689;48.798;9.070;2023-02-01T14:39:24;5.90;99.90
11264;DHT22;5689;48.798;9.070;2023-02-01T14:41:56;5.90;99.90
11264;DHT22;5689;48.798;9.070;2023-02-01T14:44:32;6.00;99.90
11264;DHT22;5689;48.798;9.070;2023-02-01T14:47:30;6.00;99.90
11264;DHT22;5689;48.798;9.070;2023-02-01T14:50:22;6.00;99.90
11264;DHT22;5689;48.798;9.070;2023-02-01T14:53:01;5.90;99.90
11264;DHT22;5689;48.798;9.070;2023-02-01T14:55:35;5.90;99.90
11264;DHT22;5689;48.798;9.070;2023-02-01T14:58:10;6.00;99.90
11264;DHT22;5689;48.798;9.070;2023-02-01T15:00:50;6.10;99.90
11264;DHT22;5689;48.798;9.070;2023-02-01T15:03:45;6.00;99.90
11264;DHT22;5689;48.798;9.070;2023-02-01T15:06:23;5.90;99.90
11264;DHT22;5689;48.798;9.070;2023-02-01T15:08:54;5.80;99.90
11264;DHT22;5689;48.798;9.070;2023-02-01T15:11:23;5.90;99.90
11264;DHT22;5689;48.798;9.070;2023-02-01T15:13:52;6.00;99.90
11264;DHT22;5689;48.798;9.070;2023-02-01T15:16:23;5.90;99.90
11264;DHT22;5689;48.798;9.070;2023-02-01T15:19:07;6.10;99.90
11264;DHT22;5689;48.798;9.070;2023-02-01T15:21:46;6.10;99.90
11264;DHT22;5689;48.798;9.070;2023-02-01T15:24:19;6.10;99.90
11264;DHT22;5689;48.798;9.070;2023-02-01T15:26:48;6.00;99.90
11264;DHT22;5689;48.798;9.070;2023-02-01T15:29:17;6.00;99.90
11264;DHT22;5689;48.798;9.070;2023-02-01T15:31:49;6.00;99.90
11264;DHT22;5689;48.798;9.070;2023-02-01T15:34:17;6.00;99.90
11264;DHT22;5689;48.798;9.070;2023-02-01T15:36:47;6.00;99.90
11264;DHT22;5689;48.798;9.070;2023-02-01T15:39:27;6.10;99.90
11264;DHT22;5689;48.798;9.070;2023-02-01T15:41:59;6.20;99.90
11264;DHT22;5689;48.798;9.070;2023-02-01T15:44:32;6.10;99.90
11264;DHT22;5689;48.798;9.070;2023-02-01T15:47:06;6.10;99.90
11264;DHT22;5689;48.798;9.070;2023-02-01T15:49:38;6.20;99.90
11264;DHT22;5689;48.798;9.070;2023-02-01T15:52:19;6.10;99.90
11264;DHT22;5689;48.798;9.070;2023-02-01T15:54:50;6.20;99.90
11264;DHT22;5689;48.798;9.070;2023-02-01T15:57:22;6.20;99.90
11264;DHT22;5689;48.798;9.070;2023-02-01T15:59:58;6.20;99.90
11264;DHT22;5689;48.798;9.070;2023-02-01T16:02:32;6.20;99.90
11264;DHT22;5689;48.798;9.070;2023-02-01T16:05:01;6.00;99.90
11264;DHT22;5689;48.798;9.070;2023-02-01T16:07:32;5.90;99.90
11264;DHT22;5689;48.798;9.070;2023-02-01T16:10:02;5.90;99.90
11264;DHT22;5689;48.798;9.070;2023-02-01T16:12:48;6.10;99.90
11264;DHT22;5689;48.798;9.070;2023-02-01T16:15:17;6.10;99.90
11264;DHT22;5689;48.798;9.070;2023-02-01T16:17:46;6.10;99.90
11264;DHT22;5689;48.798;9.070;2023-02-01T16:20:14;6.10;99.90
11264;DHT22;5689;48.798;9.070;2023-02-01T16:22:44;6.10;99.90
11264;DHT22;5689;48.798;9.070;2023-02-01T16:25:12;6.10;99.90
11264;DHT22;5689;48.798;9.070;2023-02-01T16:27:41;6.20;99.90
11264;DHT22;5689;48.798;9.070;2023-02-01T16:30:10;6.10;99.90
11264;DHT22;5689;48.798;9.070;2023-02-01T16:32:38;6.20;99.90
11264;DHT22;5689;48.798;9.070;2023-02-01T16:35:22;6.30;99.90
11264;DHT22;5689;48.798;9.070;2023-02-01T16:37:53;6.20;99.90
11264;DHT22;5689;48.798;9.070;2023-02-01T16:40:21;6.20;99.90
11264;DHT22;5689;48.798;9.070;2023-02-01T16:42:51;6.30;99.90
11264;DHT22;5689;48.798;9.070;2023-02-01T16:45:22;6.20;99.90
11264;DHT22;5689;48.798;9.070;2023-02-01T16:47:52;6.40;99.90
11264;DHT22;5689;48.798;9.070;2023-02-01T16:50:23;6.20;99.90
11264;DHT22;5689;48.798;9.070;2023-02-01T16:52:53;6.20;99.90
11264;DHT22;5689;48.798;9.070;2023-02-01T16:55:22;6.30;99.90
11264;DHT22;5689;48.798;9.070;2023-02-01T16:57:51;6.20;99.90